Haicheng, China
Current Conditions -  °F | °C
As of 6:00 PM on Saturday 27 Dec 2014 (Local Time) from ZYTX Reporting Station
Clear Clear  
Wind Chill: 25°   Ceiling: Unl
Heat Index: 30°   Visibility: 4mi
Dew Point: 19°   Wind: 4mph
Humidity: 64%   Direction: 150°SSE
Pressure: 30.24"   Gusts: NA
Location:  40.86°N, 122.74°E
Report Text: ZYTX 271000Z 15002MPS 6000 NSC M01/M07 Q1024 NOSIG
Loading
Personal Weather Stations






























Interactive Weather Map New forecast layout! Learn more

10-Day Weather Forecast

Advertisements
Track Severe Weather on mobile